Time;durP1;ratioP1;P1;durP2;ratioP2;P2;SDS_P1;SDS_P2;PMS_P1;PMS_P2;Temp;Humidity;BMP_temperature;BMP_pressure;BME280_temperature;BME280_humidity;BME280_pressure;Samples;Min_cycle;Max_cycle;Signal;HPM_P1;HPM_P2
2022/11/21 00:08:41;;;;;;;9.60;6.40;;;180.00;2252.80;;;;;;4928902;29;20735;-60
2022/11/21 00:11:21;;;;;;;7.03;5.38;;;180.00;2252.80;;;;;;4929134;29;20422;-60
2022/11/21 00:13:50;;;;;;;10.38;6.85;;;180.00;2252.80;;;;;;4930811;29;20032;-60
2022/11/21 00:16:20;;;;;;;9.10;5.78;;;180.10;2252.80;;;;;;4930210;29;20047;-60
2022/11/21 00:18:53;;;;;;;9.73;6.35;;;180.10;2252.80;;;;;;4931044;29;20038;-60
2022/11/21 00:21:21;;;;;;;8.98;5.50;;;180.00;2252.80;;;;;;4933075;29;20036;-60
2022/11/21 00:23:54;;;;;;;8.10;6.45;;;180.00;2252.80;;;;;;4933451;29;20055;-60
2022/11/21 00:26:22;;;;;;;9.10;5.97;;;180.00;2252.80;;;;;;4934056;29;20125;-60
2022/11/21 00:28:54;;;;;;;7.93;5.13;;;180.00;2252.80;;;;;;4932705;29;20117;-60
2022/11/21 00:31:30;;;;;;;14.18;7.68;;;179.80;2252.80;;;;;;4933876;29;20041;-60
2022/11/21 00:34:02;;;;;;;8.70;6.20;;;180.00;2252.80;;;;;;4917680;28;20099;-61
2022/11/21 00:36:28;;;;;;;9.10;5.85;;;180.00;2252.80;;;;;;4918020;29;20043;-60
2022/11/21 00:38:54;;;;;;;12.07;7.45;;;180.00;2252.80;;;;;;4917929;29;20024;-60
2022/11/21 00:41:20;;;;;;;14.27;9.38;;;180.10;2252.80;;;;;;4948233;28;20037;-59
2022/11/21 00:43:45;;;;;;;17.27;11.68;;;179.90;2252.80;;;;;;4996720;28;20376;-58
2022/11/21 00:46:11;;;;;;;18.77;14.57;;;180.00;2252.80;;;;;;4996634;28;20105;-59
2022/11/21 00:48:37;;;;;;;31.65;18.90;;;180.00;2252.80;;;;;;4997018;28;20034;-58
2022/11/21 00:51:03;;;;;;;16.17;10.88;;;179.90;2252.80;;;;;;4996871;28;20121;-58
2022/11/21 00:53:29;;;;;;;17.73;12.15;;;179.90;2252.80;;;;;;4996534;28;20026;-59
2022/11/21 00:55:55;;;;;;;16.05;10.18;;;179.90;2252.80;;;;;;4996651;28;20469;-59
2022/11/21 00:58:21;;;;;;;12.82;9.50;;;179.90;2252.80;;;;;;4996524;28;20033;-59
2022/11/21 01:00:46;;;;;;;14.20;9.32;;;179.80;2252.80;;;;;;4996748;28;20026;-58
2022/11/21 01:03:12;;;;;;;15.07;9.82;;;179.80;2252.80;;;;;;4996800;28;20030;-59
2022/11/21 01:05:37;;;;;;;15.02;8.52;;;179.80;2252.80;;;;;;4996361;28;20208;-58
2022/11/21 01:08:04;;;;;;;13.82;9.05;;;179.80;2252.80;;;;;;4997037;28;20050;-66
2022/11/21 01:10:29;;;;;;;17.38;11.38;;;179.70;2252.80;;;;;;4996501;28;20030;-58
2022/11/21 01:12:55;;;;;;;25.67;15.00;;;179.70;2252.80;;;;;;4995362;28;20507;-60
2022/11/21 01:15:21;;;;;;;17.45;11.50;;;179.80;2252.80;;;;;;4997759;28;20030;-66
2022/11/21 01:17:46;;;;;;;16.27;10.32;;;179.70;2252.80;;;;;;5013178;28;20049;-59
2022/11/21 01:20:13;;;;;;;16.42;9.25;;;179.60;2252.80;;;;;;5012698;28;20053;-60
2022/11/21 01:22:39;;;;;;;10.63;6.45;;;179.50;2252.80;;;;;;5012847;28;20524;-60
2022/11/21 01:25:05;;;;;;;16.15;9.55;;;179.40;2252.80;;;;;;5013158;28;20026;-66
2022/11/21 01:27:31;;;;;;;8.05;5.65;;;179.40;2252.80;;;;;;5012613;28;20034;-61
2022/11/21 01:29:56;;;;;;;7.78;5.65;;;179.40;2252.80;;;;;;5012202;28;20120;-59
2022/11/21 01:32:22;;;;;;;7.43;4.88;;;179.30;2252.80;;;;;;5012139;28;20460;-60
2022/11/21 01:34:48;;;;;;;7.88;4.80;;;154.50;2252.80;;;;;;5012691;28;20033;-59
2022/11/21 01:37:13;;;;;;;8.18;4.00;;;179.20;2252.80;;;;;;5012757;28;20022;-59
2022/11/21 01:39:39;;;;;;;6.68;4.43;;;154.50;2252.80;;;;;;5012449;28;20030;-59
2022/11/21 01:42:05;;;;;;;6.55;4.45;;;154.50;2252.80;;;;;;5012585;28;20030;-60
2022/11/21 01:44:50;;;;;;;5.70;3.28;;;179.20;2252.80;;;;;;5012303;28;20065;-58
2022/11/21 01:47:16;;;;;;;6.32;3.63;;;179.30;2252.80;;;;;;5012401;28;20014;-59
2022/11/21 01:49:43;;;;;;;8.52;6.03;;;179.30;2252.80;;;;;;5012227;28;20092;-60
2022/11/21 01:52:20;;;;;;;8.52;5.63;;;179.30;2252.80;;;;;;5012353;28;20030;-59
2022/11/21 01:54:52;;;;;;;6.70;4.50;;;179.20;2252.80;;;;;;5012442;28;20022;-59
2022/11/21 01:57:23;;;;;;;30.20;22.52;;;179.40;2252.80;;;;;;5012109;28;20088;-64
2022/11/21 01:59:52;;;;;;;19.50;17.73;;;179.30;2252.80;;;;;;5012066;28;20472;-60
2022/11/21 02:02:22;;;;;;;20.98;18.55;;;179.30;2252.80;;;;;;5012426;28;20120;-66
2022/11/21 02:04:48;;;;;;;21.33;18.58;;;179.40;2252.80;;;;;;5012286;28;20101;-60
2022/11/21 02:07:16;;;;;;;12.88;10.07;;;179.20;2252.80;;;;;;5012319;28;20033;-59
2022/11/21 02:09:45;;;;;;;18.17;11.85;;;179.30;2252.80;;;;;;5011749;28;20026;-60
2022/11/21 02:12:20;;;;;;;16.05;12.20;;;179.30;2252.80;;;;;;5011867;28;20034;-60
2022/11/21 02:14:46;;;;;;;47.55;28.60;;;179.30;2252.80;;;;;;5011978;28;20084;-60
2022/11/21 02:17:12;;;;;;;21.17;13.65;;;179.20;2252.80;;;;;;5011548;28;20034;-60
2022/11/21 02:19:56;;;;;;;9.82;6.50;;;179.20;2252.80;;;;;;5011703;28;20371;-60
2022/11/21 02:22:50;;;;;;;15.35;6.40;;;179.20;2252.80;;;;;;5011848;28;20360;-65
2022/11/21 02:25:21;;;;;;;8.85;6.55;;;179.20;2252.80;;;;;;5011755;28;20390;-60
2022/11/21 02:27:56;;;;;;;7.03;4.90;;;179.20;2252.80;;;;;;5011638;28;20044;-64
2022/11/21 02:30:22;;;;;;;11.68;7.90;;;179.20;2252.80;;;;;;5011353;28;20041;-65
2022/11/21 02:32:48;;;;;;;21.88;14.52;;;179.30;2252.80;;;;;;5011519;28;20160;-60
2022/11/21 02:35:18;;;;;;;33.88;21.75;;;179.30;2252.80;;;;;;5011482;28;20490;-60
2022/11/21 02:37:52;;;;;;;10.75;5.68;;;179.20;2252.80;;;;;;5011446;28;20024;-60
2022/11/21 02:40:24;;;;;;;8.15;5.70;;;179.30;2252.80;;;;;;5011191;28;20133;-60
2022/11/21 02:43:16;;;;;;;8.07;5.50;;;179.20;2252.80;;;;;;5011056;28;20112;-67
2022/11/21 02:45:44;;;;;;;12.32;7.82;;;154.40;2252.80;;;;;;5011062;28;20056;-60
2022/11/21 02:48:10;;;;;;;12.55;8.85;;;154.40;2252.80;;;;;;5011469;28;20054;-60
2022/11/21 02:50:39;;;;;;;8.93;5.35;;;154.50;2252.80;;;;;;5011359;28;20044;-60
2022/11/21 02:53:07;;;;;;;13.40;8.48;;;154.20;2252.80;;;;;;5011198;28;20704;-60
2022/11/21 02:55:33;;;;;;;8.50;5.00;;;154.30;2252.80;;;;;;5011103;28;20026;-59
2022/11/21 02:57:59;;;;;;;11.13;7.45;;;154.30;2252.80;;;;;;5010924;28;20033;-60
2022/11/21 03:00:25;;;;;;;8.60;5.15;;;154.20;2252.80;;;;;;5011108;28;20022;-60
2022/11/21 03:02:52;;;;;;;8.73;5.72;;;154.10;2252.80;;;;;;5010795;28;20032;-60
2022/11/21 03:05:19;;;;;;;8.30;5.22;;;154.10;2252.80;;;;;;5010865;28;20018;-60
2022/11/21 03:07:46;;;;;;;10.15;6.55;;;154.10;2252.80;;;;;;5011312;28;20388;-60
2022/11/21 03:10:13;;;;;;;8.20;5.60;;;154.10;2252.80;;;;;;5010655;28;20030;-60
2022/11/21 03:12:40;;;;;;;19.45;11.40;;;154.10;2252.80;;;;;;5010845;28;20062;-60
2022/11/21 03:15:07;;;;;;;10.15;7.15;;;154.20;2252.80;;;;;;5010660;28;20092;-60
2022/11/21 03:17:33;;;;;;;12.32;8.43;;;154.40;2252.80;;;;;;5011085;28;20034;-60
2022/11/21 03:19:59;;;;;;;107.97;58.97;;;154.20;2252.80;;;;;;5010628;28;20137;-60
2022/11/21 03:22:24;;;;;;;53.28;30.63;;;154.20;2252.80;;;;;;5010786;28;20495;-59
2022/11/21 03:24:50;;;;;;;24.83;14.75;;;154.30;2252.80;;;;;;5010534;28;20027;-60
2022/11/21 03:27:16;;;;;;;8.93;6.28;;;154.30;2252.80;;;;;;5010643;28;20026;-60
2022/11/21 03:29:42;;;;;;;9.60;6.35;;;154.20;2252.80;;;;;;5010322;28;20045;-60
2022/11/21 03:32:07;;;;;;;18.33;11.88;;;154.30;2252.80;;;;;;5010934;28;20037;-60
2022/11/21 03:34:33;;;;;;;10.10;5.90;;;154.30;2252.80;;;;;;5010842;28;20018;-60
2022/11/21 03:36:59;;;;;;;9.23;5.95;;;154.40;2252.80;;;;;;5010369;28;20388;-60
2022/11/21 03:39:24;;;;;;;7.40;4.75;;;154.40;2252.80;;;;;;5010693;28;20025;-60
2022/11/21 03:41:50;;;;;;;8.63;5.60;;;154.40;2252.80;;;;;;5010264;28;20025;-59
2022/11/21 03:44:16;;;;;;;8.45;5.97;;;154.40;2252.80;;;;;;5010888;28;20030;-59
2022/11/21 03:46:44;;;;;;;9.32;5.15;;;154.20;2252.80;;;;;;5010129;28;20476;-61
2022/11/21 03:49:10;;;;;;;10.02;5.30;;;154.30;2252.80;;;;;;5010037;28;20473;-60
2022/11/21 03:51:36;;;;;;;9.57;6.05;;;154.50;2252.80;;;;;;5010371;28;20053;-59
2022/11/21 03:54:03;;;;;;;9.27;5.03;;;154.30;2252.80;;;;;;5009985;28;20034;-59
2022/11/21 03:56:29;;;;;;;5.85;3.38;;;154.40;2252.80;;;;;;5010254;28;20034;-60
2022/11/21 03:58:55;;;;;;;6.47;4.25;;;154.40;2252.80;;;;;;5010623;28;20029;-60
2022/11/21 04:01:20;;;;;;;5.47;3.75;;;154.40;2252.80;;;;;;5010167;28;20029;-59
2022/11/21 04:03:46;;;;;;;22.83;12.68;;;154.50;2252.80;;;;;;5010244;28;20050;-60
2022/11/21 04:06:13;;;;;;;12.60;7.45;;;154.50;2252.80;;;;;;5010254;28;20045;-60
2022/11/21 04:08:39;;;;;;;8.80;6.22;;;154.50;2252.80;;;;;;5010231;28;20060;-60
2022/11/21 04:11:05;;;;;;;8.32;5.05;;;154.50;2252.80;;;;;;5010142;28;20074;-59
2022/11/21 04:13:32;;;;;;;10.85;6.78;;;154.40;2252.80;;;;;;5009955;28;20092;-60
2022/11/21 04:15:58;;;;;;;7.38;4.30;;;154.50;2252.80;;;;;;5009955;28;20111;-59
2022/11/21 04:18:23;;;;;;;7.32;4.47;;;154.50;2252.80;;;;;;5010027;28;20109;-59
2022/11/21 04:20:57;;;;;;;7.20;4.38;;;154.50;2252.80;;;;;;5010120;28;20037;-60
2022/11/21 04:23:24;;;;;;;8.10;4.22;;;154.50;2252.80;;;;;;5009912;28;20034;-59
2022/11/21 04:25:49;;;;;;;7.20;4.05;;;154.40;2252.80;;;;;;5010062;28;20040;-60
2022/11/21 04:28:15;;;;;;;7.97;4.90;;;154.40;2252.80;;;;;;5010085;28;20022;-60
2022/11/21 04:30:41;;;;;;;6.55;3.90;;;154.30;2252.80;;;;;;5010209;28;20037;-60
2022/11/21 04:33:07;;;;;;;7.15;3.97;;;154.30;2252.80;;;;;;5010160;28;20494;-59
2022/11/21 04:35:32;;;;;;;6.65;4.18;;;154.40;2252.80;;;;;;5009695;28;20081;-59
2022/11/21 04:37:58;;;;;;;6.30;4.20;;;154.40;2252.80;;;;;;5009714;28;20025;-59
2022/11/21 04:40:24;;;;;;;8.02;4.78;;;154.30;2252.80;;;;;;5010369;28;20148;-58
2022/11/21 04:42:49;;;;;;;7.05;4.00;;;154.20;2252.80;;;;;;5009942;28;20034;-58
2022/11/21 04:45:16;;;;;;;5.90;3.88;;;154.30;2252.80;;;;;;5010076;28;20030;-61
2022/11/21 04:47:46;;;;;;;6.63;3.92;;;154.20;2252.80;;;;;;5009590;28;20472;-60
2022/11/21 04:50:14;;;;;;;6.53;4.32;;;154.20;2252.80;;;;;;5009550;28;20092;-60
2022/11/21 04:52:40;;;;;;;6.00;3.72;;;154.30;2252.80;;;;;;5010138;28;20030;-60
2022/11/21 04:55:07;;;;;;;7.68;4.70;;;154.30;2252.80;;;;;;5009755;28;20045;-59
2022/11/21 04:57:33;;;;;;;6.63;4.05;;;154.30;2252.80;;;;;;5009635;28;20052;-60
2022/11/21 04:59:59;;;;;;;7.70;4.90;;;154.20;2252.80;;;;;;5009509;28;20057;-61
2022/11/21 05:02:25;;;;;;;6.80;4.10;;;154.30;2252.80;;;;;;5009686;28;20266;-60
2022/11/21 05:04:51;;;;;;;6.63;4.05;;;154.30;2252.80;;;;;;5009832;28;20098;-60
2022/11/21 05:07:17;;;;;;;7.90;7.10;;;154.30;2252.80;;;;;;5013132;28;20460;-59
2022/11/21 05:09:43;;;;;;;8.13;4.70;;;154.20;2252.80;;;;;;5013100;28;20033;-60
2022/11/21 05:14:54;;;;;;;6.97;5.05;;;154.30;2252.80;;;;;;5013243;28;20036;-59
2022/11/21 05:17:20;;;;;;;7.63;4.60;;;154.10;2252.80;;;;;;5012395;28;20484;-60
2022/11/21 05:19:46;;;;;;;6.35;4.43;;;154.10;2252.80;;;;;;5006136;28;20045;-59
2022/11/21 05:22:12;;;;;;;8.57;5.10;;;154.10;2252.80;;;;;;4993526;28;20176;-60
2022/11/21 05:24:38;;;;;;;8.68;5.45;;;154.10;2252.80;;;;;;4973937;28;20790;-59
2022/11/21 05:27:04;;;;;;;6.50;4.32;;;154.00;2252.80;;;;;;4973955;28;20034;-60
2022/11/21 05:29:30;;;;;;;7.82;4.65;;;154.00;2252.80;;;;;;4973528;28;20027;-60
2022/11/21 05:31:56;;;;;;;7.88;4.82;;;154.20;2252.80;;;;;;4973887;28;20039;-59
2022/11/21 05:34:22;;;;;;;8.13;4.82;;;154.20;2252.80;;;;;;4973419;28;20115;-60
2022/11/21 05:36:48;;;;;;;5.53;4.20;;;154.10;2252.80;;;;;;4973847;28;20027;-60
2022/11/21 05:39:14;;;;;;;7.75;4.72;;;154.10;2252.80;;;;;;4973713;28;20047;-59
2022/11/21 05:41:41;;;;;;;18.52;10.30;;;154.20;2252.80;;;;;;4973656;28;20069;-60
2022/11/21 05:44:07;;;;;;;7.93;4.82;;;154.20;2252.80;;;;;;4973740;28;20106;-59
2022/11/21 05:46:32;;;;;;;9.20;4.82;;;154.20;2252.80;;;;;;4984338;28;20045;-60
2022/11/21 05:48:58;;;;;;;8.85;5.97;;;154.10;2252.80;;;;;;4993090;28;20399;-61
2022/11/21 05:51:24;;;;;;;7.57;4.93;;;154.20;2252.80;;;;;;5003369;28;20041;-60
2022/11/21 05:53:49;;;;;;;6.78;5.18;;;154.20;2252.80;;;;;;5012132;28;20060;-60
2022/11/21 05:56:17;;;;;;;8.85;5.50;;;154.20;2252.80;;;;;;5012204;28;20029;-60
2022/11/21 05:58:44;;;;;;;6.13;4.20;;;154.10;2252.80;;;;;;5012358;28;20045;-60
2022/11/21 06:01:11;;;;;;;9.25;6.38;;;154.20;2252.80;;;;;;5012109;28;20033;-59
2022/11/21 06:03:39;;;;;;;10.73;6.07;;;154.30;2252.80;;;;;;5012409;28;20026;-59
2022/11/21 06:06:09;;;;;;;15.40;11.52;;;154.20;2252.80;;;;;;5012121;28;20076;-60
2022/11/21 06:08:36;;;;;;;9.05;6.75;;;154.30;2252.80;;;;;;5012146;28;20542;-68
2022/11/21 06:11:03;;;;;;;9.80;6.32;;;154.30;2252.80;;;;;;5011841;28;20045;-59
2022/11/21 06:13:29;;;;;;;13.75;9.35;;;154.20;2252.80;;;;;;5011821;28;20109;-60
2022/11/21 06:16:07;;;;;;;13.10;9.38;;;154.20;2252.80;;;;;;5011394;28;20058;-68
2022/11/21 06:18:38;;;;;;;18.40;15.48;;;154.30;2252.80;;;;;;5011805;28;20037;-60
2022/11/21 06:21:23;;;;;;;19.13;17.13;;;154.20;2252.80;;;;;;5011946;28;20109;-60
2022/11/21 06:23:51;;;;;;;18.98;13.32;;;154.40;2252.80;;;;;;5011591;28;20415;-60
2022/11/21 06:26:19;;;;;;;22.52;10.38;;;154.40;2252.80;;;;;;5011627;28;20038;-60
2022/11/21 06:28:45;;;;;;;16.23;14.05;;;154.40;2252.80;;;;;;5011878;28;20026;-60
2022/11/21 06:31:21;;;;;;;19.67;13.85;;;154.40;2252.80;;;;;;5011584;28;20535;-60
2022/11/21 06:33:51;;;;;;;18.60;13.15;;;154.50;2252.80;;;;;;5011456;28;20030;-59
2022/11/21 06:36:17;;;;;;;20.08;14.65;;;154.50;2252.80;;;;;;5011671;28;20038;-60
2022/11/21 06:38:44;;;;;;;19.80;13.60;;;179.20;2252.80;;;;;;5011524;28;20026;-60
2022/11/21 06:41:13;;;;;;;20.63;16.33;;;179.20;2252.80;;;;;;5011428;28;20474;-60
2022/11/21 06:43:40;;;;;;;25.98;22.23;;;179.30;2252.80;;;;;;5011375;28;20021;-59
2022/11/21 06:46:06;;;;;;;24.75;17.23;;;179.40;2252.80;;;;;;5011289;28;20033;-59
2022/11/21 06:48:36;;;;;;;24.30;20.40;;;179.40;2252.80;;;;;;5011171;28;20037;-60
2022/11/21 06:51:19;;;;;;;29.90;25.35;;;179.50;2252.80;;;;;;5011013;28;20507;-59
2022/11/21 06:53:46;;;;;;;19.02;13.68;;;179.60;2252.80;;;;;;5011459;28;20034;-60
2022/11/21 06:56:12;;;;;;;20.73;16.45;;;179.60;2252.80;;;;;;5011145;28;20068;-62
2022/11/21 06:58:37;;;;;;;19.90;12.88;;;179.70;2252.80;;;;;;5011316;28;20488;-59
2022/11/21 07:01:08;;;;;;;21.42;14.27;;;179.40;2252.80;;;;;;5011064;28;20055;-60
2022/11/21 07:03:35;;;;;;;167.35;96.22;;;179.50;2252.80;;;;;;5010970;28;20084;-59
2022/11/21 07:06:02;;;;;;;109.57;55.45;;;179.60;2252.80;;;;;;5010868;28;20022;-60
2022/11/21 07:08:29;;;;;;;40.28;23.83;;;179.60;2252.80;;;;;;5011229;28;20034;-59
2022/11/21 07:10:55;;;;;;;194.93;148.05;;;179.50;2252.80;;;;;;5010986;28;20115;-60
2022/11/21 07:13:21;;;;;;;25.45;19.20;;;179.50;2252.80;;;;;;5010577;28;20381;-60
2022/11/21 07:15:52;;;;;;;20.30;12.75;;;179.60;2252.80;;;;;;5007021;28;20053;-65
2022/11/21 07:18:21;;;;;;;129.90;72.22;;;179.70;2252.80;;;;;;4990816;28;20027;-61
2022/11/21 07:20:48;;;;;;;84.00;52.25;;;179.70;2252.80;;;;;;4990911;28;20385;-60
2022/11/21 07:23:14;;;;;;;28.70;18.42;;;179.80;2252.80;;;;;;4996624;28;20435;-66
2022/11/21 07:25:40;;;;;;;30.08;19.98;;;179.80;2252.80;;;;;;4999899;28;20026;-63
2022/11/21 07:28:06;;;;;;;22.02;13.70;;;179.80;2252.80;;;;;;5000253;28;20084;-61
2022/11/21 07:30:33;;;;;;;26.77;16.80;;;179.70;2252.80;;;;;;4998611;28;20100;-61
2022/11/21 07:33:02;;;;;;;25.73;15.20;;;179.70;2252.80;;;;;;5001047;28;20026;-60
2022/11/21 07:35:28;;;;;;;21.30;13.60;;;179.90;2252.80;;;;;;4996275;28;20030;-56
2022/11/21 07:37:53;;;;;;;39.92;30.65;;;179.80;2252.80;;;;;;5000681;28;20026;-56
2022/11/21 07:40:19;;;;;;;27.73;19.88;;;179.90;2252.80;;;;;;5001876;28;20022;-56
2022/11/21 07:42:46;;;;;;;34.05;27.55;;;179.90;2252.80;;;;;;5001401;28;20038;-57
2022/11/21 07:45:13;;;;;;;28.52;20.77;;;180.00;2252.80;;;;;;4999580;28;20045;-57
2022/11/21 07:47:39;;;;;;;22.98;13.95;;;204.80;2252.80;;;;;;5004089;28;20038;-57
2022/11/21 07:50:06;;;;;;;21.52;13.60;;;204.80;2252.80;;;;;;5010127;28;20034;-56
2022/11/21 07:52:32;;;;;;;27.15;19.23;;;204.80;2252.80;;;;;;5010302;28;20030;-57
2022/11/21 07:54:57;;;;;;;30.52;20.83;;;204.80;2252.80;;;;;;5010446;28;20369;-56
2022/11/21 07:57:24;;;;;;;22.70;15.95;;;204.90;2252.80;;;;;;5010196;28;20030;-57
2022/11/21 07:59:53;;;;;;;21.40;14.77;;;205.20;2252.80;;;;;;5010244;28;20030;-58
2022/11/21 08:02:20;;;;;;;24.08;15.57;;;205.30;2252.80;;;;;;5010227;28;20033;-57
2022/11/21 08:04:46;;;;;;;25.27;16.42;;;205.40;2252.80;;;;;;5010143;28;20495;-58
2022/11/21 08:07:13;;;;;;;25.50;17.13;;;205.30;2252.80;;;;;;5010030;28;20030;-58
2022/11/21 08:09:38;;;;;;;45.08;28.55;;;205.40;2252.80;;;;;;5010419;28;20037;-58
2022/11/21 08:12:04;;;;;;;27.38;19.00;;;205.50;2252.80;;;;;;5010163;28;20034;-57
2022/11/21 08:14:30;;;;;;;30.98;19.42;;;205.70;2252.80;;;;;;5010093;28;20026;-58
2022/11/21 08:16:56;;;;;;;28.88;17.80;;;230.60;2252.80;;;;;;5009893;28;20451;-57
2022/11/21 08:19:21;;;;;;;26.77;19.80;;;230.90;2252.80;;;;;;5009980;28;20110;-57
2022/11/21 08:21:47;;;;;;;25.20;16.73;;;256.20;2252.80;;;;;;5010100;28;20465;-58
2022/11/21 08:24:13;;;;;;;24.92;17.48;;;256.30;2252.80;;;;;;5009974;28;20375;-57
2022/11/21 08:26:40;;;;;;;22.55;16.15;;;256.30;2252.80;;;;;;5010053;28;20026;-58
2022/11/21 08:29:06;;;;;;;24.52;16.13;;;256.30;2252.80;;;;;;5010079;28;20060;-57
2022/11/21 08:31:31;;;;;;;38.08;31.48;;;256.60;2252.80;;;;;;5009888;28;20069;-58
2022/11/21 08:33:57;;;;;;;24.95;18.60;;;256.60;2252.80;;;;;;5010205;28;20072;-57
2022/11/21 08:36:23;;;;;;;23.98;18.13;;;256.60;2252.80;;;;;;5009902;28;20033;-57
2022/11/21 08:38:49;;;;;;;26.00;17.50;;;256.30;2252.80;;;;;;5010100;28;20037;-57
2022/11/21 08:43:59;;;;;;;22.63;15.50;;;256.30;2252.80;;;;;;5013909;28;20045;-58
2022/11/21 08:46:29;;;;;;;32.53;18.80;;;256.60;2252.80;;;;;;5013533;28;20037;-57
2022/11/21 08:48:54;;;;;;;22.40;16.40;;;256.30;2252.80;;;;;;5013588;28;20026;-58
2022/11/21 08:51:21;;;;;;;18.63;15.15;;;256.20;2252.80;;;;;;5013502;28;20042;-57
2022/11/21 08:53:46;;;;;;;23.80;18.35;;;256.30;2252.80;;;;;;5013221;28;20048;-58
2022/11/21 08:56:12;;;;;;;26.85;16.08;;;256.60;2252.80;;;;;;5013322;28;20033;-58
2022/11/21 08:58:39;;;;;;;22.83;17.73;;;256.70;2252.80;;;;;;5013783;28;20489;-58
2022/11/21 09:01:05;;;;;;;25.38;18.38;;;256.80;2252.80;;;;;;5013301;28;20124;-57
2022/11/21 09:03:31;;;;;;;23.60;17.02;;;281.70;2278.40;;;;;;5007146;28;20058;-56
2022/11/21 09:05:58;;;;;;;34.45;27.40;;;256.70;2252.80;;;;;;4995187;28;20415;-56
2022/11/21 09:08:24;;;;;;;26.17;16.00;;;256.80;2252.80;;;;;;4993808;28;20038;-56
2022/11/21 09:10:51;;;;;;;22.67;16.48;;;256.90;2252.80;;;;;;4993215;28;20053;-57
2022/11/21 09:13:16;;;;;;;20.25;14.13;;;281.80;2278.40;;;;;;4993422;28;20146;-57
2022/11/21 09:18:26;;;;;;;21.02;15.43;;;282.10;2278.40;;;;;;5013117;28;20037;-57
2022/11/21 09:20:52;;;;;;;76.85;50.25;;;282.10;2278.40;;;;;;5000590;28;20022;-57
2022/11/21 09:23:18;;;;;;;34.97;22.40;;;307.20;2304.00;;;;;;5000853;28;20423;-57
2022/11/21 09:25:44;;;;;;;21.90;14.43;;;307.60;2304.00;;;;;;4994701;28;20137;-57
2022/11/21 09:28:11;;;;;;;34.00;21.25;;;307.40;2304.00;;;;;;4993306;28;20056;-58
2022/11/21 09:30:38;;;;;;;68.95;43.40;;;307.50;2304.00;;;;;;4993418;28;20476;-57
2022/11/21 09:33:05;;;;;;;31.00;20.17;;;307.50;2304.00;;;;;;4993374;28;20056;-57
2022/11/21 09:35:31;;;;;;;18.20;13.57;;;282.40;2278.40;;;;;;4992923;28;20109;-58
2022/11/21 09:37:58;;;;;;;30.60;20.58;;;282.00;2278.40;;;;;;4993434;28;20428;-57
2022/11/21 09:40:24;;;;;;;32.13;20.13;;;282.10;2278.40;;;;;;4992908;28;20042;-57
2022/11/21 09:42:59;;;;;;;28.90;20.35;;;282.00;2278.40;;;;;;4993113;28;20461;-57
2022/11/21 09:45:36;;;;;;;23.45;15.73;;;282.10;2278.40;;;;;;4993000;28;20440;-57
2022/11/21 09:48:08;;;;;;;28.95;18.40;;;282.20;2278.40;;;;;;4992955;28;20037;-57
2022/11/21 09:50:55;;;;;;;34.78;25.77;;;282.10;2278.40;;;;;;4992673;28;20556;-57
2022/11/21 09:53:32;;;;;;;35.33;24.55;;;282.40;2278.40;;;;;;4992523;28;20031;-57
2022/11/21 09:56:05;;;;;;;18.92;12.63;;;282.40;2278.40;;;;;;4992866;28;20380;-57
2022/11/21 09:58:34;;;;;;;14.32;10.25;;;282.40;2278.40;;;;;;4992657;28;20030;-57
2022/11/21 10:01:00;;;;;;;21.05;15.63;;;282.30;2278.40;;;;;;4992634;28;20030;-57
2022/11/21 10:03:34;;;;;;;50.35;26.85;;;282.40;2278.40;;;;;;4992821;28;20027;-57
2022/11/21 10:06:12;;;;;;;26.98;15.65;;;307.20;2304.00;;;;;;4992413;28;20034;-59
2022/11/21 10:08:47;;;;;;;15.48;10.80;;;307.20;2304.00;;;;;;4992814;28;20529;-57
2022/11/21 10:14:50;;;;;;;21.52;12.20;;;282.10;2278.40;;;;;;4932800;29;20506;-57
2022/11/21 10:17:37;;;;;;;15.52;12.55;;;282.00;2278.40;;;;;;4932285;29;20059;-57
2022/11/21 10:20:18;;;;;;;13.02;9.48;;;281.90;2278.40;;;;;;4932130;29;20044;-57
2022/11/21 10:22:52;;;;;;;10.75;8.05;;;281.80;2278.40;;;;;;4932294;29;20032;-57
2022/11/21 10:25:38;;;;;;;17.58;12.60;;;281.60;2278.40;;;;;;4932085;29;20039;-57
2022/11/21 10:28:15;;;;;;;10.98;8.02;;;281.70;2278.40;;;;;;4931185;29;20023;-57
2022/11/21 10:30:45;;;;;;;10.68;7.75;;;282.00;2278.40;;;;;;4931902;29;20040;-58
2022/11/21 10:33:30;;;;;;;16.15;12.38;;;282.20;2278.40;;;;;;4932017;29;20178;-57
2022/11/21 10:36:15;;;;;;;13.75;10.95;;;282.40;2278.40;;;;;;4931543;29;20028;-57
2022/11/21 10:38:43;;;;;;;14.43;10.18;;;282.40;2278.40;;;;;;4930537;29;20046;-56
2022/11/21 10:41:29;;;;;;;13.82;8.43;;;307.40;2304.00;;;;;;4929051;29;20022;-58
2022/11/21 10:47:29;;;;;;;16.67;10.65;;;307.40;2304.00;;;;;;4929135;29;20451;-62
2022/11/21 10:50:08;;;;;;;18.63;12.23;;;307.40;2304.00;;;;;;4933007;28;20122;-55
2022/11/21 10:52:49;;;;;;;12.50;8.80;;;307.40;2304.00;;;;;;5002242;28;20040;-56
2022/11/21 10:55:17;;;;;;;10.77;8.18;;;282.50;2278.40;;;;;;5001860;28;20026;-57
2022/11/21 10:57:50;;;;;;;11.32;7.38;;;282.50;2278.40;;;;;;5001947;28;20088;-56
2022/11/21 11:00:24;;;;;;;12.30;8.48;;;282.40;2278.40;;;;;;5001085;28;20034;-61
2022/11/21 11:02:56;;;;;;;12.25;7.40;;;282.40;2278.40;;;;;;5001713;28;20495;-60
2022/11/21 11:05:25;;;;;;;12.35;9.18;;;282.20;2278.40;;;;;;5000064;28;20104;-60
2022/11/21 11:08:03;;;;;;;13.20;6.90;;;281.90;2278.40;;;;;;5004606;28;20026;-60
2022/11/21 11:10:31;;;;;;;10.55;7.28;;;282.00;2278.40;;;;;;5000218;28;20488;-61
2022/11/21 11:15:55;;;;;;;19.38;13.80;;;282.20;2278.40;;;;;;5004817;28;20127;-60
2022/11/21 11:18:22;;;;;;;9.63;7.38;;;282.30;2278.40;;;;;;5004802;28;20399;-60
2022/11/21 11:20:48;;;;;;;25.85;23.45;;;282.10;2278.40;;;;;;5002940;28;20108;-60
2022/11/21 11:23:21;;;;;;;11.32;9.45;;;282.20;2278.40;;;;;;5006061;28;20025;-59
2022/11/21 11:25:54;;;;;;;19.93;15.77;;;282.40;2278.40;;;;;;5008907;28;20644;-59
2022/11/21 11:28:20;;;;;;;11.20;7.97;;;282.30;2278.40;;;;;;5008877;28;20100;-59
2022/11/21 11:30:51;;;;;;;10.15;7.00;;;282.20;2278.40;;;;;;5004893;28;20049;-59
2022/11/21 11:33:53;;;;;;;10.48;7.63;;;282.00;2278.40;;;;;;5005853;28;20399;-59
2022/11/21 11:36:21;;;;;;;16.10;14.55;;;282.00;2278.40;;;;;;4909793;29;20516;-59
2022/11/21 11:38:58;;;;;;;11.88;8.23;;;282.20;2278.40;;;;;;4910171;29;20039;-59
2022/11/21 11:47:38;;;;;;;12.20;8.88;;;282.20;2278.40;;;;;;4870566;29;20137;-59
2022/11/21 11:50:11;;;;;;;11.40;7.88;;;282.00;2278.40;;;;;;4872648;29;20117;-59
2022/11/21 11:53:12;;;;;;;9.63;6.65;;;281.90;2278.40;;;;;;4872519;29;20095;-59
2022/11/21 11:55:46;;;;;;;9.45;6.15;;;282.00;2278.40;;;;;;4870771;29;20029;-59
2022/11/21 11:58:33;;;;;;;9.20;7.25;;;282.00;2278.40;;;;;;4871748;29;20094;-59
2022/11/21 12:01:23;;;;;;;11.32;6.93;;;281.90;2278.40;;;;;;4872289;29;20037;-59
2022/11/21 12:04:01;;;;;;;33.40;25.45;;;281.80;2278.40;;;;;;4872274;29;20570;-59
2022/11/21 12:06:44;;;;;;;13.00;11.07;;;281.70;2278.40;;;;;;4872380;29;20917;-59
2022/11/21 12:09:41;;;;;;;38.30;21.33;;;281.60;2278.40;;;;;;4872221;29;20045;-57
2022/11/21 12:12:38;;;;;;;22.08;9.80;;;281.90;2278.40;;;;;;4891125;29;20107;-56
2022/11/21 12:18:51;;;;;;;14.75;9.25;;;282.00;2278.40;;;;;;4913718;29;20147;-57
2022/11/21 12:21:18;;;;;;;44.15;25.80;;;281.90;2278.40;;;;;;4866181;29;20033;-56
2022/11/21 12:23:51;;;;;;;296.95;165.15;;;282.10;2278.40;;;;;;4875709;29;20069;-60
2022/11/21 12:26:19;;;;;;;85.65;46.00;;;281.90;2278.40;;;;;;4876015;29;20033;-57
2022/11/21 12:29:02;;;;;;;84.50;47.55;;;281.90;2278.40;;;;;;4876040;29;20033;-57
2022/11/21 12:31:49;;;;;;;12.70;8.45;;;282.00;2278.40;;;;;;4875564;29;20037;-58
2022/11/21 12:34:20;;;;;;;33.33;21.33;;;281.80;2278.40;;;;;;4875932;29;20049;-57
2022/11/21 12:37:21;;;;;;;9.52;5.97;;;281.80;2278.40;;;;;;4875420;29;20089;-58
2022/11/21 12:40:10;;;;;;;10.98;7.55;;;281.80;2278.40;;;;;;4846302;29;20037;-58
2022/11/21 12:43:15;;;;;;;10.63;7.05;;;281.60;2278.40;;;;;;4875943;29;20177;-58
2022/11/21 12:46:03;;;;;;;6.82;5.00;;;256.90;2252.80;;;;;;4868668;29;20045;-58
2022/11/21 12:54:29;;;;;;;14.82;8.13;;;256.70;2252.80;;;;;;4894181;29;20458;-59
2022/11/21 12:57:10;;;;;;;16.98;8.60;;;281.60;2278.40;;;;;;4894224;29;20040;-58
2022/11/21 12:59:56;;;;;;;29.88;15.75;;;256.60;2252.80;;;;;;4992317;28;20476;-58